Time;durP1;ratioP1;P1;durP2;ratioP2;P2;SDS_P1;SDS_P2;PMS_P1;PMS_P2;Temp;Humidity;BMP_temperature;BMP_pressure;BME280_temperature;BME280_humidity;BME280_pressure;Samples;Min_cycle;Max_cycle;Signal;HPM_P1;HPM_P2
2022/08/23 00:02:15;;;;;;;21.63;14.13;;;;;;;;;;4981959;28;20046;-80
2022/08/23 00:05:00;;;;;;;26.58;14.15;;;;;;;;;;4981262;28;20043;-79
2022/08/23 00:07:46;;;;;;;21.77;13.55;;;;;;;;;;4983556;28;20046;-80
2022/08/23 00:10:32;;;;;;;22.05;13.32;;;;;;;;;;4983192;28;20051;-79
2022/08/23 00:13:18;;;;;;;28.13;14.20;;;;;;;;;;4982813;28;20396;-78
2022/08/23 00:16:03;;;;;;;29.67;15.75;;;;;;;;;;4983313;28;20046;-78
2022/08/23 00:18:49;;;;;;;30.42;16.60;;;;;;;;;;4976180;28;20043;-78
2022/08/23 00:21:37;;;;;;;27.63;16.50;;;;;;;;;;4983566;28;20055;-81
2022/08/23 00:24:25;;;;;;;31.45;16.27;;;;;;;;;;4983020;28;20491;-80
2022/08/23 00:27:13;;;;;;;27.13;15.70;;;;;;;;;;4982852;28;20043;-79
2022/08/23 00:29:59;;;;;;;27.23;15.70;;;;;;;;;;4968678;28;20051;-78
2022/08/23 00:32:44;;;;;;;24.85;14.70;;;;;;;;;;4968328;28;20047;-80
2022/08/23 00:35:30;;;;;;;25.55;16.30;;;;;;;;;;4976642;28;20038;-80
2022/08/23 00:38:15;;;;;;;27.25;17.08;;;;;;;;;;4982994;28;20054;-79
2022/08/23 00:41:01;;;;;;;26.52;15.07;;;;;;;;;;4975837;28;20050;-81
2022/08/23 00:47:38;;;;;;;25.52;15.80;;;;;;;;;;4982328;28;20042;-80
2022/08/23 00:50:14;;;;;;;25.00;16.05;;;;;;;;;;4961812;28;20406;-80
2022/08/23 00:53:06;;;;;;;24.15;16.02;;;;;;;;;;4976199;28;20050;-80
2022/08/23 00:55:56;;;;;;;24.58;15.35;;;;;;;;;;4982337;28;20050;-79
2022/08/23 00:58:44;;;;;;;24.67;15.43;;;;;;;;;;4976621;28;20050;-80
2022/08/23 01:01:29;;;;;;;24.92;15.05;;;;;;;;;;4982297;28;20054;-80
2022/08/23 01:04:16;;;;;;;24.92;14.88;;;;;;;;;;4975922;28;20406;-79
2022/08/23 01:07:37;;;;;;;22.17;15.10;;;;;;;;;;4975819;28;20047;-78
2022/08/23 01:10:48;;;;;;;26.02;14.63;;;;;;;;;;4973199;28;20470;-79
2022/08/23 01:13:46;;;;;;;22.98;14.82;;;;;;;;;;4982375;28;20054;-78
2022/08/23 01:16:52;;;;;;;24.80;15.05;;;;;;;;;;4981619;28;20054;-80
2022/08/23 01:20:01;;;;;;;22.42;15.02;;;;;;;;;;4975936;28;20410;-78
2022/08/23 01:23:20;;;;;;;22.90;15.32;;;;;;;;;;4975287;28;20394;-77
2022/08/23 01:26:08;;;;;;;22.63;14.48;;;;;;;;;;4983944;28;20050;-78
2022/08/23 01:28:57;;;;;;;20.80;13.90;;;;;;;;;;4968439;28;20046;-77
2022/08/23 01:31:43;;;;;;;22.55;14.27;;;;;;;;;;4967479;28;20046;-79
2022/08/23 01:34:29;;;;;;;20.42;13.15;;;;;;;;;;4960969;28;20051;-79
2022/08/23 01:37:14;;;;;;;19.75;13.13;;;;;;;;;;4981231;28;20410;-79
2022/08/23 01:40:00;;;;;;;23.50;14.27;;;;;;;;;;4975566;28;20478;-78
2022/08/23 01:42:48;;;;;;;21.60;14.60;;;;;;;;;;4966884;28;20415;-79
2022/08/23 01:45:34;;;;;;;26.83;17.80;;;;;;;;;;4967111;28;20046;-79
2022/08/23 01:48:21;;;;;;;25.17;16.52;;;;;;;;;;4975055;28;20051;-79
2022/08/23 01:51:06;;;;;;;22.08;14.20;;;;;;;;;;4966694;28;20047;-78
2022/08/23 01:53:52;;;;;;;451.60;322.52;;;;;;;;;;4967318;28;20482;-78
2022/08/23 01:56:41;;;;;;;217.73;138.23;;;;;;;;;;4966911;28;20046;-79
2022/08/23 01:59:29;;;;;;;58.08;35.22;;;;;;;;;;4975467;28;20054;-79
2022/08/23 02:02:14;;;;;;;43.67;26.50;;;;;;;;;;4967114;28;20074;-79
2022/08/23 02:05:00;;;;;;;28.38;18.73;;;;;;;;;;4966721;28;20406;-78
2022/08/23 02:07:46;;;;;;;18.55;13.70;;;;;;;;;;4966539;28;20050;-79
2022/08/23 02:10:31;;;;;;;23.17;13.30;;;;;;;;;;4975133;28;20051;-78
2022/08/23 02:13:18;;;;;;;19.15;13.45;;;;;;;;;;4966791;28;20050;-78
2022/08/23 02:16:04;;;;;;;19.85;13.27;;;;;;;;;;4966942;28;20471;-79
2022/08/23 02:18:50;;;;;;;20.05;13.85;;;;;;;;;;4966729;28;20055;-79
2022/08/23 02:21:37;;;;;;;20.23;13.07;;;;;;;;;;4966864;28;20070;-79
2022/08/23 02:24:24;;;;;;;21.52;12.48;;;;;;;;;;4966301;28;20043;-80
2022/08/23 02:27:14;;;;;;;19.70;12.40;;;;;;;;;;4966465;28;20054;-80
2022/08/23 02:29:59;;;;;;;17.38;11.55;;;;;;;;;;4966851;28;20391;-79
2022/08/23 02:32:45;;;;;;;17.75;12.20;;;;;;;;;;4974590;28;20059;-80
2022/08/23 02:35:32;;;;;;;17.83;12.10;;;;;;;;;;4966686;28;20046;-79
2022/08/23 02:38:17;;;;;;;19.55;13.23;;;;;;;;;;4969395;28;20046;-80
2022/08/23 02:41:03;;;;;;;17.63;11.77;;;;;;;;;;4980412;28;20049;-80
2022/08/23 02:43:53;;;;;;;17.85;12.27;;;;;;;;;;5004137;28;20477;-80
2022/08/23 02:46:41;;;;;;;19.77;11.27;;;;;;;;;;4989362;28;20046;-80
2022/08/23 02:49:27;;;;;;;18.63;11.32;;;;;;;;;;4986865;28;20047;-80
2022/08/23 02:52:13;;;;;;;15.93;10.73;;;;;;;;;;4990029;28;20034;-79
2022/08/23 02:54:58;;;;;;;17.98;11.13;;;;;;;;;;4984236;28;20051;-79
2022/08/23 02:57:44;;;;;;;16.50;10.35;;;;;;;;;;4970130;28;20486;-79
2022/08/23 03:00:31;;;;;;;16.17;11.38;;;;;;;;;;4975289;28;20409;-79
2022/08/23 03:03:19;;;;;;;17.35;10.82;;;;;;;;;;4978590;28;20082;-79
2022/08/23 03:06:04;;;;;;;15.98;11.10;;;;;;;;;;4976951;28;20046;-78
2022/08/23 03:08:50;;;;;;;16.38;10.48;;;;;;;;;;4985129;28;20042;-80
2022/08/23 03:11:35;;;;;;;14.93;10.15;;;;;;;;;;4994218;28;20046;-79
2022/08/23 03:14:21;;;;;;;14.77;10.35;;;;;;;;;;4989055;28;20047;-78
2022/08/23 03:17:06;;;;;;;14.65;9.55;;;;;;;;;;4987279;28;20054;-79
2022/08/23 03:19:52;;;;;;;14.73;10.18;;;;;;;;;;4987177;28;20413;-80
2022/08/23 03:22:37;;;;;;;13.48;9.32;;;;;;;;;;4988243;28;20498;-79
2022/08/23 03:25:23;;;;;;;13.35;9.73;;;;;;;;;;4987533;28;20054;-80
2022/08/23 03:28:19;;;;;;;16.13;9.93;;;;;;;;;;4982136;28;20432;-78
2022/08/23 03:31:06;;;;;;;14.63;9.50;;;;;;;;;;4988502;28;20050;-80
2022/08/23 03:33:57;;;;;;;13.98;9.25;;;;;;;;;;4989189;28;20429;-80
2022/08/23 03:36:43;;;;;;;15.90;9.27;;;;;;;;;;5003319;28;20046;-79
2022/08/23 03:39:28;;;;;;;12.55;9.45;;;;;;;;;;4988508;28;20050;-80
2022/08/23 03:42:17;;;;;;;13.45;9.35;;;;;;;;;;4988244;28;20054;-79
2022/08/23 03:45:03;;;;;;;15.15;8.38;;;;;;;;;;4988735;28;20050;-80
2022/08/23 03:47:48;;;;;;;15.50;9.02;;;;;;;;;;4988421;28;20046;-79
2022/08/23 03:50:35;;;;;;;13.02;9.13;;;;;;;;;;4988458;28;20050;-80
2022/08/23 03:53:22;;;;;;;11.90;8.90;;;;;;;;;;4988067;28;20046;-81
2022/08/23 03:56:09;;;;;;;10.77;8.52;;;;;;;;;;4988234;28;20054;-78
2022/08/23 03:58:56;;;;;;;13.57;7.97;;;;;;;;;;4987587;28;20050;-80
2022/08/23 04:01:42;;;;;;;14.02;7.95;;;;;;;;;;5002042;28;20050;-80
2022/08/23 04:04:28;;;;;;;9.68;7.10;;;;;;;;;;5001962;28;20050;-80
2022/08/23 04:07:34;;;;;;;11.13;7.90;;;;;;;;;;5005062;28;20466;-80
2022/08/23 04:10:20;;;;;;;12.30;7.40;;;;;;;;;;5002283;28;20050;-81
2022/08/23 04:13:10;;;;;;;8.75;6.22;;;;;;;;;;5016026;28;20054;-81
2022/08/23 04:15:57;;;;;;;10.25;6.57;;;;;;;;;;5001972;28;20050;-79
2022/08/23 04:18:44;;;;;;;8.40;6.80;;;;;;;;;;5001568;28;20054;-80
2022/08/23 04:21:31;;;;;;;11.35;7.28;;;;;;;;;;5001710;28;20054;-80
2022/08/23 04:24:17;;;;;;;9.73;7.05;;;;;;;;;;5014979;28;20054;-80
2022/08/23 04:27:04;;;;;;;8.70;7.57;;;;;;;;;;5001397;28;20046;-81
2022/08/23 04:29:50;;;;;;;8.05;6.43;;;;;;;;;;5001580;28;20054;-79
2022/08/23 04:32:36;;;;;;;9.88;7.30;;;;;;;;;;5001242;28;20046;-81
2022/08/23 04:35:24;;;;;;;11.63;6.88;;;;;;;;;;5001789;28;20051;-80
2022/08/23 04:38:11;;;;;;;10.38;7.55;;;;;;;;;;5001325;28;20051;-81
2022/08/23 04:44:04;;;;;;;12.60;7.78;;;;;;;;;;5001347;28;20401;-81
2022/08/23 04:46:51;;;;;;;15.30;7.90;;;;;;;;;;5000668;28;20042;-81
2022/08/23 04:49:36;;;;;;;11.13;8.23;;;;;;;;;;5001173;28;20046;-79
2022/08/23 04:52:21;;;;;;;9.32;8.18;;;;;;;;;;5000484;28;20050;-80
2022/08/23 04:55:08;;;;;;;9.88;7.90;;;;;;;;;;5001139;28;20046;-80
2022/08/23 04:58:09;;;;;;;13.77;8.93;;;;;;;;;;5000848;28;20050;-80
2022/08/23 05:01:09;;;;;;;10.25;7.78;;;;;;;;;;4986736;28;20381;-80
2022/08/23 05:03:55;;;;;;;12.57;8.80;;;;;;;;;;4980229;28;20042;-79
2022/08/23 05:06:44;;;;;;;10.32;7.15;;;;;;;;;;4982281;28;20409;-77
2022/08/23 05:09:29;;;;;;;10.13;7.47;;;;;;;;;;5001843;28;20051;-79
2022/08/23 05:12:15;;;;;;;11.73;8.05;;;;;;;;;;4988472;28;20402;-79
2022/08/23 05:15:00;;;;;;;10.75;8.00;;;;;;;;;;4994409;28;20039;-80
2022/08/23 05:17:47;;;;;;;10.40;7.78;;;;;;;;;;4977801;28;20050;-79
2022/08/23 05:20:33;;;;;;;11.07;7.88;;;;;;;;;;4991555;28;20042;-80
2022/08/23 05:23:20;;;;;;;10.98;8.50;;;;;;;;;;4990770;28;20046;-80
2022/08/23 05:26:10;;;;;;;14.02;8.55;;;;;;;;;;4980686;28;20046;-79
2022/08/23 05:28:58;;;;;;;12.05;8.80;;;;;;;;;;4980627;28;20046;-81
2022/08/23 05:31:50;;;;;;;11.07;8.30;;;;;;;;;;4994999;28;20038;-79
2022/08/23 05:34:36;;;;;;;13.10;8.30;;;;;;;;;;4985662;28;20050;-79
2022/08/23 05:37:28;;;;;;;15.55;7.25;;;;;;;;;;4986762;28;20046;-80
2022/08/23 05:40:14;;;;;;;10.50;8.00;;;;;;;;;;4981267;28;20047;-79
2022/08/23 05:43:13;;;;;;;9.85;8.73;;;;;;;;;;4977841;28;20050;-80
2022/08/23 05:46:14;;;;;;;14.07;8.77;;;;;;;;;;4975837;28;20047;-79
2022/08/23 05:49:04;;;;;;;9.68;8.05;;;;;;;;;;4986287;28;20054;-80
2022/08/23 05:51:50;;;;;;;11.73;8.45;;;;;;;;;;4986239;28;20046;-79
2022/08/23 05:54:35;;;;;;;9.32;7.90;;;;;;;;;;4986246;28;20090;-80
2022/08/23 05:57:53;;;;;;;12.20;8.90;;;;;;;;;;5000820;28;20046;-80
2022/08/23 06:00:38;;;;;;;13.23;9.23;;;;;;;;;;4994512;28;20420;-78
2022/08/23 06:03:24;;;;;;;12.15;9.15;;;;;;;;;;4985875;28;20042;-80
2022/08/23 06:06:13;;;;;;;11.23;8.68;;;;;;;;;;4986400;28;20433;-78
2022/08/23 06:09:01;;;;;;;11.18;8.50;;;;;;;;;;4985752;28;20050;-80
2022/08/23 06:11:47;;;;;;;9.85;8.82;;;;;;;;;;4986022;28;20051;-80
2022/08/23 06:14:32;;;;;;;9.50;8.10;;;;;;;;;;4999909;28;20054;-79
2022/08/23 06:17:18;;;;;;;10.02;7.90;;;;;;;;;;4989827;28;20050;-80
2022/08/23 06:20:05;;;;;;;12.68;7.28;;;;;;;;;;4984834;28;20042;-80
2022/08/23 06:23:13;;;;;;;10.30;8.15;;;;;;;;;;4991764;28;20050;-78
2022/08/23 06:26:08;;;;;;;13.60;8.45;;;;;;;;;;4990239;28;20394;-78
2022/08/23 06:28:58;;;;;;;11.13;8.32;;;;;;;;;;4989946;28;20050;-80
2022/08/23 06:31:48;;;;;;;11.82;8.05;;;;;;;;;;4989424;28;20050;-80
2022/08/23 06:34:44;;;;;;;10.35;7.22;;;;;;;;;;4988776;28;20050;-79
2022/08/23 06:38:02;;;;;;;10.02;7.90;;;;;;;;;;4979185;28;20046;-80
2022/08/23 06:41:27;;;;;;;13.60;8.20;;;;;;;;;;4925375;29;20155;-81
2022/08/23 06:44:32;;;;;;;;;;;;;;;;;;4926576;29;20048;-79
2022/08/23 06:47:33;;;;;;;10.75;7.68;;;;;;;;;;4985177;28;19914;-79
2022/08/23 06:50:19;;;;;;;10.07;6.97;;;;;;;;;;4971078;28;20051;-78
2022/08/23 06:53:23;;;;;;;10.88;8.07;;;;;;;;;;4977991;28;20398;-78
2022/08/23 06:56:18;;;;;;;9.60;7.43;;;;;;;;;;4984826;28;20046;-80
2022/08/23 06:59:22;;;;;;;10.63;8.27;;;;;;;;;;4986878;28;20402;-80
2022/08/23 07:02:28;;;;;;;10.60;6.97;;;;;;;;;;5002962;28;20490;-78
2022/08/23 07:05:16;;;;;;;8.93;7.30;;;;;;;;;;4998525;28;20051;-81
2022/08/23 07:08:09;;;;;;;10.98;7.43;;;;;;;;;;5001580;28;20054;-80
2022/08/23 07:10:55;;;;;;;9.93;7.30;;;;;;;;;;5004175;28;20038;-77
2022/08/23 07:13:41;;;;;;;8.82;7.53;;;;;;;;;;5001515;28;20034;-77
2022/08/23 07:16:38;;;;;;;9.15;7.65;;;;;;;;;;4991812;28;20474;-78
2022/08/23 07:19:33;;;;;;;10.32;8.68;;;;;;;;;;5002748;28;20046;-79
2022/08/23 07:22:19;;;;;;;10.18;8.05;;;;;;;;;;4997702;28;20054;-80
2022/08/23 07:25:04;;;;;;;13.25;7.97;;;;;;;;;;4997407;28;20068;-78
2022/08/23 07:27:50;;;;;;;10.55;7.88;;;;;;;;;;5001203;28;20050;-78
2022/08/23 07:30:38;;;;;;;10.40;8.20;;;;;;;;;;5001691;28;20050;-77
2022/08/23 07:33:24;;;;;;;11.77;8.60;;;;;;;;;;4996806;28;20047;-78
2022/08/23 07:36:31;;;;;;;9.85;7.72;;;;;;;;;;5002280;28;20050;-79
2022/08/23 07:39:19;;;;;;;8.75;7.15;;;;;;;;;;4998064;28;20058;-78
2022/08/23 07:42:04;;;;;;;10.63;7.70;;;;;;;;;;4985511;28;20063;-78
2022/08/23 07:44:52;;;;;;;9.23;7.50;;;;;;;;;;4992158;28;20043;-78
2022/08/23 07:47:41;;;;;;;83.20;59.28;;;;;;;;;;4982471;28;20474;-77
2022/08/23 07:50:26;;;;;;;117.75;75.25;;;;;;;;;;4999091;28;20409;-78
2022/08/23 07:53:11;;;;;;;174.73;119.57;;;;;;;;;;4982625;28;20043;-79
2022/08/23 07:55:58;;;;;;;53.60;33.63;;;;;;;;;;4993233;28;20054;-78
2022/08/23 07:59:03;;;;;;;284.77;211.55;;;;;;;;;;4997342;28;20050;-78
2022/08/23 08:02:05;;;;;;;174.55;108.05;;;;;;;;;;5000552;28;20050;-77
2022/08/23 08:04:52;;;;;;;15.95;11.23;;;;;;;;;;4995035;28;20046;-78
2022/08/23 08:07:37;;;;;;;18.35;10.10;;;;;;;;;;4996276;28;20050;-77
2022/08/23 08:10:23;;;;;;;13.48;9.50;;;;;;;;;;5002006;28;20405;-78
2022/08/23 08:13:09;;;;;;;15.48;9.15;;;;;;;;;;5001554;28;20501;-77
2022/08/23 08:15:57;;;;;;;12.93;9.13;;;;;;;;;;5001342;28;20046;-78
2022/08/23 08:18:46;;;;;;;11.90;8.85;;;;;;;;;;5002026;28;20046;-78
2022/08/23 08:21:59;;;;;;;13.98;9.02;;;;;;;;;;4990869;28;20050;-79
2022/08/23 08:25:14;;;;;;;15.63;9.32;;;;;;;;;;4992547;28;20039;-78
2022/08/23 08:28:01;;;;;;;15.20;10.52;;;;;;;;;;5001580;28;20046;-78
2022/08/23 08:30:46;;;;;;;17.73;9.30;;;;;;;;;;5001032;28;20054;-78
2022/08/23 08:33:32;;;;;;;29.02;17.13;;;;;;;;;;5006230;28;20054;-77
2022/08/23 08:36:34;;;;;;;23.73;15.02;;;;;;;;;;5000775;28;20046;-78
2022/08/23 08:39:24;;;;;;;19.35;12.73;;;;;;;;;;5001189;28;20046;-79
2022/08/23 08:42:40;;;;;;;16.45;11.57;;;;;;;;;;5001248;28;20103;-78
2022/08/23 08:45:31;;;;;;;11.10;8.07;;;;;;;;;;5000902;28;20046;-80
2022/08/23 08:48:22;;;;;;;13.98;8.27;;;;;;;;;;5001352;28;20490;-80
2022/08/23 08:51:21;;;;;;;11.68;6.65;;;;;;;;;;4998399;28;20042;-78
2022/08/23 08:54:09;;;;;;;9.63;7.22;;;;;;;;;;5000408;28;20046;-78
2022/08/23 08:57:02;;;;;;;13.85;7.50;;;;;;;;;;4990601;28;20050;-76
2022/08/23 09:00:14;;;;;;;8.35;6.55;;;;;;;;;;4997902;28;20050;-76
2022/08/23 09:03:04;;;;;;;8.95;6.78;;;;;;;;;;5009992;28;20050;-78
2022/08/23 09:06:28;;;;;;;9.88;6.78;;;;;;;;;;4992820;28;20050;-78
2022/08/23 09:09:41;;;;;;;6.53;5.15;;;;;;;;;;4986589;28;20054;-76
2022/08/23 09:12:39;;;;;;;8.88;5.65;;;;;;;;;;4984396;28;20050;-75
2022/08/23 09:15:56;;;;;;;6.03;4.93;;;;;;;;;;4986279;28;20047;-79
2022/08/23 09:18:41;;;;;;;6.32;4.53;;;;;;;;;;5013364;28;20054;-79
2022/08/23 09:21:38;;;;;;;6.22;4.75;;;;;;;;;;5000308;28;20058;-78
2022/08/23 09:24:25;;;;;;;6.95;4.05;;;;;;;;;;5000316;28;20046;-79
2022/08/23 09:27:27;;;;;;;2.63;2.40;;;;;;;;;;5000646;28;20046;-78
2022/08/23 09:30:17;;;;;;;4.63;2.90;;;;;;;;;;5000572;28;20490;-78
2022/08/23 09:33:24;;;;;;;2.90;2.58;;;;;;;;;;4998481;28;20054;-79
2022/08/23 09:36:23;;;;;;;3.08;2.70;;;;;;;;;;4980872;28;20042;-77
2022/08/23 09:39:33;;;;;;;5.88;3.35;;;;;;;;;;4989566;28;20046;-77
2022/08/23 09:42:32;;;;;;;4.53;2.92;;;;;;;;;;4989586;28;20050;-76
2022/08/23 09:45:29;;;;;;;3.35;2.65;;;;;;;;;;4988593;28;20042;-77
2022/08/23 09:48:41;;;;;;;3.55;3.08;;;;;;;;;;4984680;28;20478;-78
2022/08/23 09:51:39;;;;;;;3.00;2.70;;;;;;;;;;4992202;28;20046;-77
2022/08/23 09:54:35;;;;;;;5.28;3.22;;;;;;;;;;4999637;28;20085;-77
2022/08/23 09:57:26;;;;;;;3.75;2.75;;;;;;;;;;4998898;28;20046;-77
2022/08/23 10:00:16;;;;;;;5.00;3.38;;;;;;;;;;4985370;28;20493;-78
2022/08/23 10:03:25;;;;;;;4.60;3.10;;;;;;;;;;4980718;28;20058;-79
2022/08/23 10:06:29;;;;;;;3.97;3.10;;;;;;;;;;4978227;28;20054;-78
2022/08/23 10:09:21;;;;;;;7.22;5.53;;;;;;;;;;4982950;28;20050;-78
2022/08/23 10:12:09;;;;;;;6.43;3.85;;;;;;;;;;4991639;28;20046;-78
2022/08/23 10:14:54;;;;;;;3.85;3.03;;;;;;;;;;4982673;28;20039;-78
2022/08/23 10:18:02;;;;;;;6.88;3.80;;;;;;;;;;4976919;28;20047;-78
2022/08/23 10:21:00;;;;;;;4.07;3.35;;;;;;;;;;4999637;28;20481;-77
2022/08/23 10:24:00;;;;;;;5.28;4.20;;;;;;;;;;4999719;28;20046;-80
2022/08/23 10:26:56;;;;;;;6.22;3.60;;;;;;;;;;5000598;28;20050;-78
2022/08/23 10:29:47;;;;;;;6.28;3.10;;;;;;;;;;4986718;28;20051;-77
2022/08/23 10:32:39;;;;;;;7.13;3.15;;;;;;;;;;4979093;28;20043;-77
2022/08/23 10:36:04;;;;;;;3.65;3.08;;;;;;;;;;4983673;28;20042;-77
2022/08/23 10:38:57;;;;;;;4.43;2.83;;;;;;;;;;4973283;28;20050;-80
2022/08/23 10:42:17;;;;;;;3.30;2.72;;;;;;;;;;4999355;28;20050;-77
2022/08/23 10:45:23;;;;;;;3.58;2.92;;;;;;;;;;4999103;28;20050;-78
2022/08/23 10:48:19;;;;;;;3.20;2.60;;;;;;;;;;4979855;28;20047;-78
2022/08/23 10:51:16;;;;;;;4.22;3.00;;;;;;;;;;4979590;28;20051;-78
2022/08/23 10:54:07;;;;;;;3.88;2.80;;;;;;;;;;4979700;28;20493;-80
2022/08/23 10:56:54;;;;;;;4.70;2.80;;;;;;;;;;4998069;28;20489;-76
2022/08/23 10:59:41;;;;;;;2.65;2.28;;;;;;;;;;4977598;28;20362;-78
2022/08/23 11:02:44;;;;;;;3.85;2.95;;;;;;;;;;4969041;28;20050;-81
2022/08/23 11:05:42;;;;;;;3.75;2.65;;;;;;;;;;4977417;28;20050;-77
2022/08/23 11:08:35;;;;;;;4.47;2.80;;;;;;;;;;4988787;28;20058;-78
2022/08/23 11:11:48;;;;;;;4.00;3.05;;;;;;;;;;4988653;28;20413;-80
2022/08/23 11:15:10;;;;;;;3.22;2.85;;;;;;;;;;4988672;28;20054;-81
2022/08/23 11:18:02;;;;;;;3.13;2.80;;;;;;;;;;4986845;28;20489;-77
2022/08/23 11:20:49;;;;;;;3.78;2.70;;;;;;;;;;4988047;28;20500;-79
2022/08/23 11:23:43;;;;;;;3.38;2.40;;;;;;;;;;5001669;28;20478;-78
2022/08/23 11:26:30;;;;;;;2.50;2.10;;;;;;;;;;4988974;28;20050;-82
2022/08/23 11:29:19;;;;;;;2.75;2.30;;;;;;;;;;4988748;28;20046;-80
2022/08/23 11:32:26;;;;;;;5.32;2.20;;;;;;;;;;4988373;28;20046;-78
2022/08/23 11:35:34;;;;;;;2.15;1.90;;;;;;;;;;5002247;28;20046;-79
2022/08/23 11:38:55;;;;;;;2.22;2.03;;;;;;;;;;4987953;28;20058;-79
2022/08/23 11:41:55;;;;;;;2.42;2.10;;;;;;;;;;4929570;29;20051;-79
2022/08/23 11:44:47;;;;;;;3.45;2.10;;;;;;;;;;4988264;28;20050;-79
2022/08/23 11:47:42;;;;;;;5.22;2.13;;;;;;;;;;4988664;28;20050;-80
2022/08/23 11:50:58;;;;;;;3.45;1.90;;;;;;;;;;4996335;28;20038;-80
2022/08/23 11:53:49;;;;;;;1.98;1.80;;;;;;;;;;4996334;28;20038;-78
2022/08/23 11:57:01;;;;;;;3.33;2.30;;;;;;;;;;4984196;28;20042;-78
2022/08/23 12:00:02;;;;;;;2.08;1.88;;;;;;;;;;4990239;28;20102;-79
2022/08/23 12:03:01;;;;;;;3.08;2.42;;;;;;;;;;4991806;28;20055;-78
2022/08/23 12:05:49;;;;;;;3.95;2.45;;;;;;;;;;4998630;28;20485;-80
2022/08/23 12:08:45;;;;;;;5.00;2.80;;;;;;;;;;5013139;28;20046;-86
2022/08/23 12:11:55;;;;;;;4.82;3.92;;;;;;;;;;4995483;28;20042;-84
2022/08/23 12:14:40;;;;;;;6.50;3.33;;;;;;;;;;4975297;28;20393;-85
2022/08/23 12:17:25;;;;;;;3.03;2.08;;;;;;;;;;5003917;28;20046;-81
2022/08/23 12:20:19;;;;;;;7.07;2.70;;;;;;;;;;4987874;28;20043;-82
2022/08/23 12:23:12;;;;;;;6.25;3.05;;;;;;;;;;4996639;28;20134;-85
2022/08/23 12:26:05;;;;;;;4.65;3.17;;;;;;;;;;4996364;28;20054;-80
2022/08/23 12:28:58;;;;;;;3.53;2.80;;;;;;;;;;4995864;28;20513;-83
2022/08/23 12:31:51;;;;;;;4.43;2.80;;;;;;;;;;4995673;28;20038;-83
2022/08/23 12:34:49;;;;;;;2.92;2.70;;;;;;;;;;4995266;28;20042;-81
2022/08/23 12:37:52;;;;;;;3.95;2.42;;;;;;;;;;4995945;28;20054;-81
2022/08/23 12:40:41;;;;;;;3.95;2.60;;;;;;;;;;5001009;28;20054;-82
2022/08/23 12:43:29;;;;;;;3.33;2.65;;;;;;;;;;4988357;28;20454;-81
2022/08/23 12:46:28;;;;;;;3.47;2.60;;;;;;;;;;5001848;28;20046;-81
2022/08/23 12:49:34;;;;;;;5.68;3.22;;;;;;;;;;4995026;28;20042;-83
2022/08/23 12:52:25;;;;;;;3.92;3.42;;;;;;;;;;4994077;28;20046;-81
2022/08/23 12:55:13;;;;;;;4.43;3.85;;;;;;;;;;4998642;28;20047;-82
2022/08/23 12:58:00;;;;;;;5.20;4.30;;;;;;;;;;4990949;28;20050;-82
2022/08/23 13:00:58;;;;;;;6.55;4.15;;;;;;;;;;4979908;28;20047;-81
2022/08/23 13:03:53;;;;;;;4.72;3.90;;;;;;;;;;4986468;28;20050;-81
2022/08/23 13:06:45;;;;;;;6.80;3.92;;;;;;;;;;4982680;28;20050;-81
2022/08/23 13:09:37;;;;;;;6.07;3.90;;;;;;;;;;4980641;28;20046;-79
2022/08/23 13:12:24;;;;;;;4.30;3.72;;;;;;;;;;4995222;28;20478;-79
2022/08/23 13:15:11;;;;;;;4.72;4.22;;;;;;;;;;4989918;28;20038;-80
2022/08/23 13:18:00;;;;;;;5.82;4.40;;;;;;;;;;4991808;28;20042;-80
2022/08/23 13:20:45;;;;;;;6.97;4.60;;;;;;;;;;4990364;28;20067;-80
2022/08/23 13:23:31;;;;;;;4.75;4.10;;;;;;;;;;4981591;28;20050;-78
2022/08/23 13:26:38;;;;;;;4.43;4.00;;;;;;;;;;4981305;28;20054;-79
2022/08/23 13:29:24;;;;;;;5.22;4.50;;;;;;;;;;4982640;28;20051;-79
2022/08/23 13:32:28;;;;;;;7.03;5.63;;;;;;;;;;4983591;28;20051;-81
2022/08/23 13:35:44;;;;;;;7.10;5.65;;;;;;;;;;4996595;28;20482;-82
2022/08/23 13:38:31;;;;;;;7.38;5.68;;;;;;;;;;4987934;28;20050;-81
2022/08/23 13:41:34;;;;;;;5.68;4.80;;;;;;;;;;4997763;28;20042;-83
2022/08/23 13:44:21;;;;;;;6.88;5.00;;;;;;;;;;4999501;28;20050;-80
2022/08/23 13:47:20;;;;;;;8.63;5.55;;;;;;;;;;4999887;28;20478;-81
2022/08/23 13:50:14;;;;;;;6.32;4.82;;;;;;;;;;5001101;28;20050;-81
2022/08/23 13:53:00;;;;;;;;;;;;;;;;;;4999698;28;20054;-82
2022/08/23 13:55:47;;;;;;;;;;;;;;;;;;5001433;28;19917;-78
2022/08/23 13:58:33;;;;;;;8.07;5.72;;;;;;;;;;4998499;28;19918;-80
2022/08/23 14:01:19;;;;;;;9.23;6.18;;;;;;;;;;5000962;28;20046;-81
2022/08/23 14:04:04;;;;;;;11.00;5.80;;;;;;;;;;5000745;28;20050;-82
2022/08/23 14:06:49;;;;;;;6.28;5.43;;;;;;;;;;5000551;28;20054;-82
2022/08/23 14:09:37;;;;;;;10.07;6.47;;;;;;;;;;4994213;28;20042;-82
2022/08/23 14:12:28;;;;;;;8.82;7.03;;;;;;;;;;4985585;28;20042;-82
2022/08/23 14:15:14;;;;;;;9.52;7.18;;;;;;;;;;5000365;28;20051;-81
2022/08/23 14:18:00;;;;;;;14.75;7.80;;;;;;;;;;5000830;28;20453;-82
2022/08/23 14:20:45;;;;;;;8.15;6.57;;;;;;;;;;5000634;28;20054;-79
2022/08/23 14:23:31;;;;;;;9.82;7.63;;;;;;;;;;5000639;28;20046;-81
2022/08/23 14:26:18;;;;;;;9.32;7.60;;;;;;;;;;5000289;28;20046;-80
2022/08/23 14:29:04;;;;;;;14.25;8.07;;;;;;;;;;5000718;28;20401;-79
2022/08/23 14:31:51;;;;;;;9.35;7.70;;;;;;;;;;5000492;28;20050;-80
2022/08/23 14:34:36;;;;;;;10.80;8.60;;;;;;;;;;5000118;28;20050;-81
2022/08/23 14:37:22;;;;;;;10.00;8.00;;;;;;;;;;5003368;28;20054;-81
2022/08/23 14:40:08;;;;;;;10.93;9.30;;;;;;;;;;5004279;28;20481;-81
2022/08/23 14:42:53;;;;;;;11.93;8.70;;;;;;;;;;4991907;28;20050;-83
2022/08/23 14:45:38;;;;;;;11.65;9.25;;;;;;;;;;5006495;28;20046;-79
2022/08/23 14:48:24;;;;;;;11.25;9.10;;;;;;;;;;4997511;28;20046;-77
2022/08/23 14:51:28;;;;;;;15.52;9.55;;;;;;;;;;4992367;28;20038;-80
2022/08/23 14:54:19;;;;;;;12.52;9.85;;;;;;;;;;4992128;28;20038;-79
2022/08/23 14:57:04;;;;;;;9.02;6.97;;;;;;;;;;4997037;28;20050;-78
2022/08/23 14:59:50;;;;;;;8.85;6.72;;;;;;;;;;4992195;28;20047;-81
2022/08/23 15:02:35;;;;;;;9.30;7.82;;;;;;;;;;4983246;28;20076;-81
2022/08/23 15:05:21;;;;;;;9.35;7.30;;;;;;;;;;4991519;28;20050;-80
2022/08/23 15:08:06;;;;;;;10.98;8.13;;;;;;;;;;4985664;28;20050;-80
2022/08/23 15:10:53;;;;;;;9.68;8.00;;;;;;;;;;4984872;28;20059;-79
2022/08/23 15:13:41;;;;;;;11.02;8.55;;;;;;;;;;4977894;28;20047;-80
2022/08/23 15:16:26;;;;;;;11.80;8.90;;;;;;;;;;4977703;28;20495;-81
2022/08/23 15:19:12;;;;;;;13.00;9.30;;;;;;;;;;4983973;28;20038;-80
2022/08/23 15:21:58;;;;;;;12.40;9.45;;;;;;;;;;4983052;28;20047;-81
2022/08/23 15:24:44;;;;;;;14.45;9.05;;;;;;;;;;4991857;28;20046;-82
2022/08/23 15:27:30;;;;;;;12.40;9.27;;;;;;;;;;5003922;28;20046;-81
2022/08/23 15:30:16;;;;;;;13.80;10.32;;;;;;;;;;4999295;28;20038;-80
2022/08/23 15:33:01;;;;;;;13.23;10.77;;;;;;;;;;4997257;28;20054;-80
2022/08/23 15:35:53;;;;;;;12.30;10.20;;;;;;;;;;5003180;28;20046;-80
2022/08/23 15:38:40;;;;;;;15.02;11.35;;;;;;;;;;4989113;28;20050;-81
2022/08/23 15:41:25;;;;;;;14.23;10.40;;;;;;;;;;4998790;28;20046;-82
2022/08/23 15:44:11;;;;;;;14.27;10.40;;;;;;;;;;4990052;28;20058;-81
2022/08/23 15:46:56;;;;;;;14.32;10.13;;;;;;;;;;4988680;28;20051;-83
2022/08/23 15:49:42;;;;;;;17.77;12.55;;;;;;;;;;4999810;28;20051;-83
2022/08/23 15:52:28;;;;;;;15.60;11.70;;;;;;;;;;4999664;28;20425;-81
2022/08/23 15:55:13;;;;;;;17.65;12.73;;;;;;;;;;5001084;28;20493;-79
2022/08/23 15:57:59;;;;;;;14.35;11.30;;;;;;;;;;4999386;28;20046;-82
2022/08/23 16:00:46;;;;;;;13.80;10.32;;;;;;;;;;5000969;28;20046;-81
2022/08/23 16:03:31;;;;;;;15.70;9.80;;;;;;;;;;4999624;28;20046;-83
2022/08/23 16:06:16;;;;;;;11.68;8.70;;;;;;;;;;4996835;28;20046;-83
2022/08/23 16:09:03;;;;;;;9.05;6.53;;;;;;;;;;4982030;28;20046;-82
2022/08/23 16:11:49;;;;;;;11.57;6.93;;;;;;;;;;4995662;28;20046;-82
2022/08/23 16:14:35;;;;;;;9.77;5.03;;;;;;;;;;5002371;28;20050;-82
2022/08/23 16:17:21;;;;;;;6.75;4.78;;;;;;;;;;4998057;28;20042;-83
2022/08/23 16:20:09;;;;;;;8.27;6.00;;;;;;;;;;4986481;28;20046;-83
2022/08/23 16:22:54;;;;;;;20.55;5.78;;;;;;;;;;4994521;28;20054;-83
2022/08/23 16:25:40;;;;;;;6.50;4.93;;;;;;;;;;4988861;28;20046;-82
2022/08/23 16:28:25;;;;;;;9.65;5.82;;;;;;;;;;4981236;28;20046;-81
2022/08/23 16:31:10;;;;;;;8.75;6.18;;;;;;;;;;5002219;28;20397;-82
2022/08/23 16:33:56;;;;;;;9.23;6.32;;;;;;;;;;5002034;28;20042;-82
2022/08/23 16:36:44;;;;;;;11.73;7.53;;;;;;;;;;4993406;28;20050;-83
2022/08/23 16:39:31;;;;;;;8.63;7.07;;;;;;;;;;4995421;28;20047;-81
2022/08/23 16:42:17;;;;;;;10.07;6.85;;;;;;;;;;5002252;28;20477;-81
2022/08/23 16:45:02;;;;;;;10.73;7.55;;;;;;;;;;5002193;28;20050;-83
2022/08/23 16:47:47;;;;;;;11.48;7.85;;;;;;;;;;4999139;28;20047;-81
2022/08/23 16:50:33;;;;;;;12.38;7.90;;;;;;;;;;4993040;28;20050;-81
2022/08/23 16:53:19;;;;;;;11.38;7.95;;;;;;;;;;4977021;28;20039;-81
2022/08/23 16:56:06;;;;;;;11.52;7.97;;;;;;;;;;4990981;28;20038;-81
2022/08/23 16:58:52;;;;;;;15.77;8.18;;;;;;;;;;4994257;28;20058;-81
2022/08/23 17:01:53;;;;;;;14.95;8.27;;;;;;;;;;5001674;28;20068;-82
2022/08/23 17:04:37;;;;;;;10.40;7.65;;;;;;;;;;4990971;28;20051;-82